sensor_id;sensor_type;location;lat;lon;timestamp;pressure;altitude;pressure_sealevel;temperature;humidity
69593;BME280;56796;50.122;14.468;2023-10-13T00:17:23;979.29;;;15.58;100
69593;BME280;56796;50.122;14.468;2023-10-13T00:36:51;979.28;;;15.56;100
69593;BME280;56796;50.122;14.468;2023-10-13T00:56:17;979.45;;;15.62;100
69593;BME280;56796;50.122;14.468;2023-10-13T01:15:45;979.58;;;15.68;100
69593;BME280;56796;50.122;14.468;2023-10-13T01:35:12;979.59;;;15.8;100
69593;BME280;56796;50.122;14.468;2023-10-13T01:54:39;979.7;;;15.88;99.31
69593;BME280;56796;50.122;14.468;2023-10-13T02:14:06;979.7;;;15.94;98.76
69593;BME280;56796;50.122;14.468;2023-10-13T02:33:34;979.82;;;15.97;98.26
69593;BME280;56796;50.122;14.468;2023-10-13T02:53:03;979.68;;;16.03;97.51
69593;BME280;56796;50.122;14.468;2023-10-13T03:12:28;979.51;;;15.73;98.07
69593;BME280;56796;50.122;14.468;2023-10-13T03:31:54;979.64;;;15.54;99.16
69593;BME280;56796;50.122;14.468;2023-10-13T03:51:21;979.51;;;15.45;99.6
69593;BME280;56796;50.122;14.468;2023-10-13T04:10:48;979.55;;;15.29;100
69593;BME280;56796;50.122;14.468;2023-10-13T04:30:14;979.43;;;15.21;100
69593;BME280;56796;50.122;14.468;2023-10-13T04:49:41;979.25;;;15.13;100
69593;BME280;56796;50.122;14.468;2023-10-13T05:09:08;979.33;;;15.14;100
69593;BME280;56796;50.122;14.468;2023-10-13T05:28:35;979.49;;;15.38;100
69593;BME280;56796;50.122;14.468;2023-10-13T05:48:04;979.49;;;15.68;100
69593;BME280;56796;50.122;14.468;2023-10-13T06:07:31;979.52;;;15.8;100
69593;BME280;56796;50.122;14.468;2023-10-13T06:26:59;979.69;;;16.15;100
69593;BME280;56796;50.122;14.468;2023-10-13T06:46:28;979.78;;;16.25;99.37
69593;BME280;56796;50.122;14.468;2023-10-13T07:06:05;979.84;;;16.43;98.26
69593;BME280;56796;50.122;14.468;2023-10-13T07:25:16;979.86;;;16.62;97.47
69593;BME280;56796;50.122;14.468;2023-10-13T07:44:43;979.77;;;17;95.35
69593;BME280;56796;50.122;14.468;2023-10-13T08:04:11;979.67;;;17.42;94.01
69593;BME280;56796;50.122;14.468;2023-10-13T08:23:40;979.63;;;18.03;90.91
69593;BME280;56796;50.122;14.468;2023-10-13T08:43:10;979.49;;;18.46;89.44
69593;BME280;56796;50.122;14.468;2023-10-13T09:02:39;979.42;;;19.04;87.3
69593;BME280;56796;50.122;14.468;2023-10-13T09:22:07;979.32;;;19.36;85.68
69593;BME280;56796;50.122;14.468;2023-10-13T09:41:41;979.35;;;21.73;77.7
69593;BME280;56796;50.122;14.468;2023-10-13T10:01:15;979.21;;;21.03;77.43
69593;BME280;56796;50.122;14.468;2023-10-13T10:20:38;979.02;;;20.68;79.17
69593;BME280;56796;50.122;14.468;2023-10-13T10:40:07;978.87;;;20.98;77.76
69593;BME280;56796;50.122;14.468;2023-10-13T10:59:34;978.67;;;21.59;74.37
69593;BME280;56796;50.122;14.468;2023-10-13T11:19:03;978.44;;;21.52;72.84
69593;BME280;56796;50.122;14.468;2023-10-13T11:38:30;978.19;;;21.68;72.23
69593;BME280;56796;50.122;14.468;2023-10-13T11:57:59;977.78;;;22.69;67.93
69593;BME280;56796;50.122;14.468;2023-10-13T12:17:29;977.56;;;22.87;66.46
69593;BME280;56796;50.122;14.468;2023-10-13T12:36:58;977.37;;;23.6;61.92
69593;BME280;56796;50.122;14.468;2023-10-13T12:56:28;977.14;;;24.09;57.85
69593;BME280;56796;50.122;14.468;2023-10-13T13:16:01;976.84;;;24.75;54.94
69593;BME280;56796;50.122;14.468;2023-10-13T13:35:26;976.6;;;26.39;47.96
69593;BME280;56796;50.122;14.468;2023-10-13T13:54:57;976.19;;;26.93;44.95
69593;BME280;56796;50.122;14.468;2023-10-13T14:14:30;975.76;;;27.56;40.96
69593;BME280;56796;50.122;14.468;2023-10-13T14:33:57;975.65;;;27.18;40.16
69593;BME280;56796;50.122;14.468;2023-10-13T14:53:21;975.59;;;26.28;40.18
69593;BME280;56796;50.122;14.468;2023-10-13T15:12:45;975.38;;;25.79;40.79
69593;BME280;56796;50.122;14.468;2023-10-13T15:32:10;975.3;;;24.96;42.3
69593;BME280;56796;50.122;14.468;2023-10-13T15:51:33;975.19;;;24.3;43.41
69593;BME280;56796;50.122;14.468;2023-10-13T16:11:03;975.12;;;24.11;42.83
69593;BME280;56796;50.122;14.468;2023-10-13T16:30:24;975.28;;;23.41;44.58
69593;BME280;56796;50.122;14.468;2023-10-13T16:49:50;975.14;;;23;45.66
69593;BME280;56796;50.122;14.468;2023-10-13T17:09:16;975.19;;;23.09;45.35
69593;BME280;56796;50.122;14.468;2023-10-13T17:28:43;975.1;;;22.64;46.68
69593;BME280;56796;50.122;14.468;2023-10-13T17:48:10;974.93;;;22.32;47.35
69593;BME280;56796;50.122;14.468;2023-10-13T18:07:37;974.71;;;21.8;49.24
69593;BME280;56796;50.122;14.468;2023-10-13T18:27:03;974.55;;;21.3;50.96
69593;BME280;56796;50.122;14.468;2023-10-13T18:46:30;974.46;;;21.05;51.54
69593;BME280;56796;50.122;14.468;2023-10-13T19:05:56;974.33;;;21.17;50.88
69593;BME280;56796;50.122;14.468;2023-10-13T19:25:33;974.24;;;20.91;51.79
69593;BME280;56796;50.122;14.468;2023-10-13T19:44:44;974.17;;;20.79;52.47
69593;BME280;56796;50.122;14.468;2023-10-13T20:04:10;973.98;;;20.56;53.21
69593;BME280;56796;50.122;14.468;2023-10-13T20:23:37;973.91;;;20.16;54.57
69593;BME280;56796;50.122;14.468;2023-10-13T20:43:04;973.73;;;19.91;55.16
69593;BME280;56796;50.122;14.468;2023-10-13T21:02:32;973.43;;;19.37;56.9
69593;BME280;56796;50.122;14.468;2023-10-13T21:21:51;973.14;;;19.04;57.83
69593;BME280;56796;50.122;14.468;2023-10-13T21:41:18;972.9;;;18.74;58.83
69593;BME280;56796;50.122;14.468;2023-10-13T22:00:43;972.68;;;18.68;58.71
69593;BME280;56796;50.122;14.468;2023-10-13T22:20:10;972.42;;;18.58;58.51
69593;BME280;56796;50.122;14.468;2023-10-13T22:39:37;972.22;;;18.5;58.17
69593;BME280;56796;50.122;14.468;2023-10-13T22:59:04;971.93;;;18.45;57.88
69593;BME280;56796;50.122;14.468;2023-10-13T23:18:31;971.83;;;18.45;57.08
69593;BME280;56796;50.122;14.468;2023-10-13T23:37:58;971.7;;;18.49;56.47
69593;BME280;56796;50.122;14.468;2023-10-13T23:57:26;971.42;;;18.2;56.59
